createdAt,value
2018-02-18T00:02:06.792Z,24.20
2018-02-18T00:04:34.431Z,22.80
2018-02-18T00:07:02.073Z,23.63
2018-02-18T00:09:29.713Z,21.50
2018-02-18T00:11:57.362Z,22.80
2018-02-18T00:14:24.999Z,21.93
2018-02-18T00:16:53.397Z,21.37
2018-02-18T00:19:21.029Z,22.23
2018-02-18T00:21:48.664Z,21.60
2018-02-18T00:24:16.301Z,22.07
2018-02-18T00:26:43.957Z,20.77
2018-02-18T00:29:11.602Z,19.90
2018-02-18T00:31:39.243Z,20.60
2018-02-18T00:34:06.873Z,20.97
2018-02-18T00:36:34.507Z,20.93
2018-02-18T00:39:02.153Z,19.73
2018-02-18T00:41:29.789Z,22.67
2018-02-18T00:43:57.429Z,22.83
2018-02-18T00:46:25.826Z,22.67
2018-02-18T00:48:53.467Z,31.33
2018-02-18T00:51:21.852Z,23.50
2018-02-18T00:53:49.496Z,22.63
2018-02-18T00:56:17.137Z,22.57
2018-02-18T00:58:44.774Z,22.40
2018-02-18T01:01:12.410Z,22.73
2018-02-18T01:03:40.045Z,21.53
2018-02-18T01:06:07.684Z,21.10
2018-02-18T01:08:35.325Z,21.37
2018-02-18T01:11:02.957Z,21.00
2018-02-18T01:13:30.580Z,22.53
2018-02-18T01:15:58.225Z,21.90
2018-02-18T01:18:26.618Z,22.17
2018-02-18T01:20:54.246Z,22.00
2018-02-18T01:23:21.885Z,21.57
2018-02-18T01:25:49.520Z,22.13
2018-02-18T01:28:17.141Z,23.03
2018-02-18T01:30:44.792Z,22.00
2018-02-18T01:33:12.455Z,22.57
2018-02-18T01:35:40.084Z,21.60
2018-02-18T01:38:07.716Z,21.50
2018-02-18T01:40:36.145Z,21.80
2018-02-18T01:43:03.787Z,20.70
2018-02-18T01:45:32.197Z,21.83
2018-02-18T01:47:59.837Z,21.80
2018-02-18T01:50:36.400Z,20.03
2018-02-18T01:53:04.032Z,21.47
2018-02-18T01:55:31.668Z,19.93
2018-02-18T01:57:59.310Z,18.73
2018-02-18T02:00:28.892Z,20.43
2018-02-18T02:02:56.550Z,21.87
2018-02-18T02:05:24.195Z,21.03
2018-02-18T02:07:51.820Z,28.07
2018-02-18T02:10:19.464Z,19.43
2018-02-18T02:12:47.868Z,20.83
2018-02-18T02:15:15.504Z,20.57
2018-02-18T02:17:43.145Z,27.37
2018-02-18T02:20:10.788Z,18.23
2018-02-18T02:22:38.428Z,19.67
2018-02-18T02:25:06.073Z,20.60
2018-02-18T02:27:33.716Z,18.50
2018-02-18T02:30:01.350Z,19.80
2018-02-18T02:32:28.984Z,19.00
2018-02-18T02:34:57.386Z,17.57
2018-02-18T02:37:25.038Z,25.77
2018-02-18T02:39:52.656Z,19.87
2018-02-18T02:42:20.308Z,18.40
2018-02-18T02:44:47.928Z,17.90
2018-02-18T02:47:16.331Z,20.53
2018-02-18T02:49:43.958Z,19.67
2018-02-18T02:52:11.606Z,20.17
2018-02-18T02:54:39.269Z,19.17
2018-02-18T02:57:06.893Z,19.77
2018-02-18T02:59:34.525Z,18.37
2018-02-18T03:02:02.185Z,20.47
2018-02-18T03:04:29.829Z,21.17
2018-02-18T03:06:57.465Z,22.17
2018-02-18T03:09:25.093Z,24.07
2018-02-18T03:11:52.737Z,23.67
2018-02-18T03:14:20.375Z,23.30
2018-02-18T03:16:48.028Z,23.17
2018-02-18T03:19:15.662Z,22.30
2018-02-18T03:21:44.073Z,25.67
2018-02-18T03:24:11.709Z,24.23
2018-02-18T03:26:39.341Z,23.80
2018-02-18T03:29:06.985Z,23.57
2018-02-18T03:31:34.613Z,24.83
2018-02-18T03:34:03.013Z,24.43
2018-02-18T03:36:31.404Z,24.90
2018-02-18T03:38:59.048Z,25.97
2018-02-18T03:41:26.696Z,25.60
2018-02-18T03:43:54.330Z,23.87
2018-02-18T03:46:21.982Z,26.20
2018-02-18T03:48:49.609Z,25.23
2018-02-18T03:51:17.253Z,24.33
2018-02-18T03:53:44.891Z,25.33
2018-02-18T03:56:12.541Z,22.27
2018-02-18T03:58:40.189Z,23.43
2018-02-18T04:01:08.593Z,24.83
2018-02-18T04:03:36.228Z,24.73
2018-02-18T04:06:04.637Z,21.30
2018-02-18T04:08:32.273Z,23.63
2018-02-18T04:10:59.904Z,22.90
2018-02-18T04:13:27.552Z,21.07
2018-02-18T04:15:55.188Z,22.80
2018-02-18T04:18:23.585Z,21.87
2018-02-18T04:20:51.233Z,20.93
2018-02-18T04:23:19.160Z,21.33
2018-02-18T04:25:46.813Z,21.03
2018-02-18T04:28:14.439Z,19.97
2018-02-18T04:30:42.847Z,22.00
2018-02-18T04:33:10.476Z,19.40
2018-02-18T04:35:38.112Z,19.63
2018-02-18T04:38:05.756Z,21.10
2018-02-18T04:40:33.397Z,20.47
2018-02-18T04:43:01.030Z,19.57
2018-02-18T04:45:28.664Z,18.00
2018-02-18T04:47:56.300Z,19.43
2018-02-18T04:50:24.201Z,18.30
2018-02-18T04:52:51.852Z,17.13
2018-02-18T04:55:19.494Z,20.97
2018-02-18T04:57:47.904Z,19.37
2018-02-18T05:00:15.546Z,18.27
2018-02-18T05:02:47.590Z,18.73
2018-02-18T05:05:15.236Z,18.60
2018-02-18T05:07:42.872Z,18.37
2018-02-18T05:10:10.505Z,18.77
2018-02-18T05:12:38.901Z,17.83
2018-02-18T05:15:06.557Z,18.53
2018-02-18T05:17:35.356Z,17.63
2018-02-18T05:20:03.371Z,15.70
2018-02-18T05:22:31.004Z,17.57
2018-02-18T05:24:58.632Z,18.20
2018-02-18T05:27:26.268Z,16.97
2018-02-18T05:29:53.969Z,17.63
2018-02-18T05:32:21.605Z,17.40
2018-02-18T05:34:49.242Z,17.70
2018-02-18T05:37:16.888Z,17.80
2018-02-18T05:39:45.288Z,17.03
2018-02-18T05:42:12.930Z,16.60
2018-02-18T05:44:41.354Z,17.70
2018-02-18T05:47:09.000Z,18.83
2018-02-18T05:49:36.632Z,16.23
2018-02-18T05:52:04.272Z,16.90
2018-02-18T05:54:31.904Z,17.37
2018-02-18T05:56:59.568Z,18.03
2018-02-18T05:59:27.176Z,17.67
2018-02-18T06:01:54.811Z,23.02
2018-02-18T06:04:22.466Z,16.73
2018-02-18T06:06:50.100Z,18.03
2018-02-18T06:09:17.754Z,17.77
2018-02-18T06:11:45.396Z,14.73
2018-02-18T06:14:13.050Z,17.03
2018-02-18T06:16:40.684Z,16.13
2018-02-18T06:19:09.088Z,16.80
2018-02-18T06:21:36.724Z,16.57
2018-02-18T06:24:04.363Z,16.93
2018-02-18T06:26:35.312Z,17.13
2018-02-18T06:29:02.943Z,16.00
2018-02-18T06:31:30.589Z,16.40
2018-02-18T06:33:58.990Z,15.43
2018-02-18T06:36:26.620Z,15.70
2018-02-18T06:38:55.036Z,16.73
2018-02-18T06:41:22.689Z,15.73
2018-02-18T06:43:50.361Z,16.80
2018-02-18T06:46:18.049Z,17.57
2018-02-18T06:48:45.665Z,17.53
2018-02-18T06:51:14.112Z,16.90
2018-02-18T06:53:41.748Z,16.43
2018-02-18T06:56:09.425Z,18.10
2018-02-18T06:58:37.053Z,16.33
2018-02-18T07:01:05.449Z,16.10
2018-02-18T07:03:33.126Z,15.17
2018-02-18T07:06:00.760Z,15.07
2018-02-18T07:08:28.398Z,17.50
2018-02-18T07:10:56.044Z,16.47
2018-02-18T07:13:23.673Z,17.67
2018-02-18T07:15:51.325Z,18.20
2018-02-18T07:18:19.743Z,18.90
2018-02-18T07:20:47.396Z,17.13
2018-02-18T07:23:15.788Z,18.43
2018-02-18T07:25:43.423Z,18.40
2018-02-18T07:28:11.053Z,20.10
2018-02-18T07:30:38.751Z,18.50
2018-02-18T07:33:06.329Z,19.00
2018-02-18T07:35:34.732Z,18.77
2018-02-18T07:38:02.369Z,18.90
2018-02-18T07:40:30.000Z,20.17
2018-02-18T07:42:57.644Z,18.43
2018-02-18T07:45:26.024Z,18.87
2018-02-18T07:47:53.661Z,20.50
2018-02-18T07:50:22.062Z,26.30
2018-02-18T07:53:01.745Z,20.37
2018-02-18T07:55:29.376Z,19.17
2018-02-18T07:57:57.004Z,19.33
2018-02-18T08:00:35.279Z,21.07
2018-02-18T08:03:02.912Z,20.97
2018-02-18T08:05:30.545Z,20.67
2018-02-18T08:07:58.181Z,27.60
2018-02-18T08:10:25.825Z,21.33
2018-02-18T08:12:53.457Z,18.63
2018-02-18T08:15:21.093Z,21.60
2018-02-18T08:17:48.727Z,21.73
2018-02-18T08:20:16.352Z,22.57
2018-02-18T08:22:44.253Z,21.13
2018-02-18T08:25:11.893Z,22.50
2018-02-18T08:27:40.337Z,19.60
2018-02-18T08:30:07.977Z,22.23
2018-02-18T08:32:35.613Z,21.13
2018-02-18T08:35:04.016Z,22.30
2018-02-18T08:37:31.666Z,22.93
2018-02-18T08:40:00.068Z,22.23
2018-02-18T08:42:27.712Z,24.03
2018-02-18T08:44:56.113Z,24.10
2018-02-18T08:47:23.757Z,21.57
2018-02-18T08:49:52.176Z,23.90
2018-02-18T08:52:19.808Z,22.50
2018-02-18T08:54:48.215Z,24.40
2018-02-18T08:57:15.853Z,24.53
2018-02-18T08:59:44.253Z,23.87
2018-02-18T09:02:12.685Z,24.47
2018-02-18T09:04:40.333Z,26.60
2018-02-18T09:07:07.971Z,25.50
2018-02-18T09:09:36.394Z,24.10
2018-02-18T09:12:04.024Z,26.90
2018-02-18T09:14:31.656Z,27.23
2018-02-18T09:16:59.296Z,26.27
2018-02-18T09:19:26.928Z,26.70
2018-02-18T09:21:54.572Z,25.83
2018-02-18T09:24:22.192Z,25.80
2018-02-18T09:26:49.829Z,24.40
2018-02-18T09:29:17.468Z,23.40
2018-02-18T09:31:45.092Z,22.97
2018-02-18T09:34:12.721Z,22.17
2018-02-18T09:36:41.105Z,24.80
2018-02-18T09:39:08.745Z,19.47
2018-02-18T09:41:36.686Z,19.73
2018-02-18T09:44:15.237Z,18.43
2018-02-18T09:46:42.877Z,17.30
2018-02-18T09:49:10.500Z,16.87
2018-02-18T09:51:38.133Z,15.57
2018-02-18T09:54:05.755Z,16.70
2018-02-18T09:56:33.394Z,13.77
2018-02-18T09:59:01.784Z,17.13
2018-02-18T10:01:31.354Z,16.83
2018-02-18T10:03:58.977Z,16.33
2018-02-18T10:06:26.606Z,15.50
2018-02-18T10:08:55.802Z,15.73
2018-02-18T10:11:29.592Z,15.67
2018-02-18T10:13:57.224Z,16.23
2018-02-18T10:16:24.846Z,15.27
2018-02-18T10:18:53.240Z,16.00
2018-02-18T10:21:20.878Z,13.77
2018-02-18T10:23:48.521Z,14.03
2018-02-18T10:26:16.140Z,15.10
2018-02-18T10:28:43.769Z,15.67
2018-02-18T10:31:11.398Z,13.37
2018-02-18T10:33:39.336Z,14.30
2018-02-18T10:36:07.762Z,14.07
2018-02-18T10:38:36.105Z,15.73
2018-02-18T10:41:15.697Z,14.27
2018-02-18T10:43:43.331Z,14.40
2018-02-18T10:46:10.957Z,14.10
2018-02-18T10:48:38.596Z,15.47
2018-02-18T10:51:06.221Z,13.43
2018-02-18T10:53:33.850Z,15.73
2018-02-18T10:56:01.476Z,16.07
2018-02-18T10:58:29.103Z,14.37
2018-02-18T11:00:57.502Z,14.97
2018-02-18T11:03:25.147Z,14.73
2018-02-18T11:05:52.809Z,13.97
2018-02-18T11:08:21.239Z,15.37
2018-02-18T11:10:49.281Z,15.60
2018-02-18T11:13:24.353Z,13.77
2018-02-18T11:15:51.991Z,14.80
2018-02-18T11:18:19.633Z,16.37
2018-02-18T11:20:48.036Z,14.63
2018-02-18T11:23:16.441Z,13.37
2018-02-18T11:25:46.853Z,14.67
2018-02-18T11:28:14.517Z,15.43
2018-02-18T11:30:42.148Z,14.50
2018-02-18T11:33:09.768Z,14.73
2018-02-18T11:35:37.401Z,14.77
2018-02-18T11:38:05.816Z,14.20
2018-02-18T11:40:33.444Z,14.37
2018-02-18T11:43:01.840Z,11.93
2018-02-18T11:45:30.228Z,13.97
2018-02-18T11:47:57.846Z,15.33
2018-02-18T11:50:25.473Z,12.33
2018-02-18T11:52:53.101Z,13.77
2018-02-18T11:55:21.489Z,12.10
2018-02-18T11:57:49.125Z,13.53
2018-02-18T12:00:16.745Z,13.83
2018-02-18T12:02:49.608Z,12.73
2018-02-18T12:05:17.241Z,14.67
2018-02-18T12:07:44.869Z,13.77
2018-02-18T12:10:12.489Z,12.13
2018-02-18T12:12:40.117Z,13.63
2018-02-18T12:15:07.745Z,14.13
2018-02-18T12:17:36.137Z,13.43
2018-02-18T12:20:03.777Z,13.13
2018-02-18T12:22:36.773Z,13.60
2018-02-18T12:25:05.181Z,13.63
2018-02-18T12:27:32.829Z,13.20
2018-02-18T12:30:01.232Z,14.10
2018-02-18T12:32:28.857Z,13.10
2018-02-18T12:34:56.503Z,14.03
2018-02-18T12:37:24.128Z,13.10
2018-02-18T12:39:51.769Z,13.60
2018-02-18T12:42:19.399Z,13.70
2018-02-18T12:44:47.024Z,14.40
2018-02-18T12:47:14.669Z,14.23
2018-02-18T12:49:43.066Z,13.63
2018-02-18T12:52:11.468Z,14.10
2018-02-18T12:54:39.182Z,14.70
2018-02-18T12:57:06.771Z,14.00
2018-02-18T12:59:34.409Z,14.60
2018-02-18T13:02:02.059Z,14.73
2018-02-18T13:04:30.716Z,15.00
2018-02-18T13:06:58.356Z,13.53
2018-02-18T13:09:25.980Z,13.77
2018-02-18T13:11:53.614Z,13.43
2018-02-18T13:14:21.248Z,13.37
2018-02-18T13:16:48.897Z,14.07
2018-02-18T13:19:16.551Z,14.23
2018-02-18T13:21:44.184Z,14.60
2018-02-18T13:24:12.384Z,14.43
2018-02-18T13:26:41.010Z,14.27
2018-02-18T13:29:08.637Z,13.37
2018-02-18T13:31:36.270Z,14.67
2018-02-18T13:34:08.821Z,14.10
2018-02-18T13:36:36.452Z,14.60
2018-02-18T13:39:04.085Z,13.97
2018-02-18T13:41:31.718Z,14.20
2018-02-18T13:44:00.126Z,14.83
2018-02-18T13:46:28.573Z,13.97
2018-02-18T13:48:56.204Z,30.73
2018-02-18T13:51:23.839Z,15.07
2018-02-18T13:53:51.724Z,13.37
2018-02-18T13:56:19.742Z,13.80
2018-02-18T13:58:47.385Z,13.30
2018-02-18T14:01:15.021Z,13.50
2018-02-18T14:03:54.288Z,13.70
2018-02-18T14:06:21.925Z,12.07
2018-02-18T14:08:49.572Z,12.30
2018-02-18T14:11:17.622Z,10.80
2018-02-18T14:13:45.239Z,11.53
2018-02-18T14:16:12.865Z,11.80
2018-02-18T14:18:40.515Z,10.90
2018-02-18T14:21:08.160Z,10.97
2018-02-18T14:23:35.797Z,11.50
2018-02-18T14:26:03.466Z,11.17
2018-02-18T14:28:31.853Z,10.57
2018-02-18T14:30:59.517Z,11.07
2018-02-18T14:33:27.153Z,10.70
2018-02-18T14:35:54.788Z,10.20
2018-02-18T14:38:22.440Z,10.63
2018-02-18T14:40:50.083Z,10.47
2018-02-18T14:43:29.631Z,10.73
2018-02-18T14:46:09.157Z,11.33
2018-02-18T14:48:48.689Z,9.47
2018-02-18T14:51:28.928Z,9.77
2018-02-18T14:54:09.188Z,8.87
2018-02-18T14:59:30.525Z,8.87
2018-02-18T15:01:59.022Z,10.47
2018-02-18T15:04:27.013Z,9.27
2018-02-18T15:06:54.705Z,9.53
2018-02-18T15:09:22.309Z,9.53
2018-02-18T15:11:50.744Z,9.93
2018-02-18T15:14:19.102Z,11.13
2018-02-18T15:16:46.742Z,10.00
2018-02-18T15:19:15.121Z,10.67
2018-02-18T15:21:43.520Z,10.73
2018-02-18T15:24:11.149Z,9.40
2018-02-18T15:26:39.156Z,9.50
2018-02-18T15:29:06.785Z,11.10
2018-02-18T15:31:34.413Z,9.93
2018-02-18T15:34:03.054Z,10.40
2018-02-18T15:36:30.673Z,9.47
2018-02-18T15:38:58.307Z,10.27
2018-02-18T15:41:26.688Z,9.23
2018-02-18T15:43:55.470Z,10.17
2018-02-18T15:46:23.879Z,9.50
2018-02-18T15:48:51.513Z,9.80
2018-02-18T15:51:19.147Z,9.53
2018-02-18T15:53:46.792Z,9.77
2018-02-18T15:56:16.348Z,10.27
2018-02-18T15:58:43.974Z,11.73
2018-02-18T16:01:11.596Z,10.53
2018-02-18T16:03:39.987Z,10.20
2018-02-18T16:06:07.649Z,10.77
2018-02-18T16:08:36.041Z,10.83
2018-02-18T16:11:03.668Z,10.40
2018-02-18T16:16:18.370Z,12.37
2018-02-18T16:18:46.752Z,11.87
2018-02-18T16:21:15.154Z,11.97
2018-02-18T16:23:42.788Z,12.23
2018-02-18T16:26:10.416Z,12.13
2018-02-18T16:28:38.054Z,12.70
2018-02-18T16:31:05.686Z,12.53
2018-02-18T16:33:33.304Z,13.60
2018-02-18T16:36:00.931Z,13.83
2018-02-18T16:38:29.324Z,13.53
2018-02-18T16:40:56.946Z,13.87
2018-02-18T16:43:24.565Z,13.50
2018-02-18T16:45:52.201Z,13.53
2018-02-18T16:48:20.118Z,14.00
2018-02-18T16:50:47.764Z,12.87
2018-02-18T16:53:15.393Z,13.90
2018-02-18T16:55:51.345Z,14.23
2018-02-18T16:58:18.970Z,15.23
2018-02-18T17:00:46.605Z,14.33
2018-02-18T17:03:15.003Z,14.30
2018-02-18T17:05:54.164Z,15.43
2018-02-18T17:08:21.792Z,15.43
2018-02-18T17:10:50.178Z,16.53
2018-02-18T17:13:17.800Z,15.97
2018-02-18T17:15:49.162Z,17.27
2018-02-18T17:18:16.786Z,16.97
2018-02-18T17:21:03.031Z,16.87
2018-02-18T17:23:30.679Z,16.17
2018-02-18T17:25:58.304Z,16.60
2018-02-18T17:28:25.923Z,16.37
2018-02-18T17:30:54.341Z,15.60
2018-02-18T17:33:34.625Z,16.63
2018-02-18T17:36:02.410Z,16.50
2018-02-18T17:38:30.570Z,16.50
2018-02-18T17:40:58.181Z,16.50
2018-02-18T17:43:25.822Z,17.70
2018-02-18T17:45:53.449Z,18.73
2018-02-18T17:48:21.060Z,16.23
2018-02-18T17:50:48.986Z,17.67
2018-02-18T17:53:16.621Z,16.50
2018-02-18T17:55:45.024Z,17.10
2018-02-18T17:58:12.981Z,16.90
2018-02-18T18:00:41.432Z,15.67
2018-02-18T18:03:09.057Z,16.27
2018-02-18T18:05:36.680Z,16.67
2018-02-18T18:08:04.340Z,17.03
2018-02-18T18:10:31.981Z,15.57
2018-02-18T18:12:59.605Z,15.90
2018-02-18T18:15:27.251Z,15.70
2018-02-18T18:17:54.892Z,16.37
2018-02-18T18:20:22.537Z,17.63
2018-02-18T18:22:50.172Z,15.53
2018-02-18T18:25:18.568Z,15.97
2018-02-18T18:27:48.133Z,16.67
2018-02-18T18:30:15.772Z,17.67
2018-02-18T18:32:43.416Z,18.97
2018-02-18T18:35:11.063Z,19.03
2018-02-18T18:37:39.453Z,17.93
2018-02-18T18:40:07.076Z,19.70
2018-02-18T18:42:34.718Z,19.30
2018-02-18T18:45:02.369Z,20.90
2018-02-18T18:47:30.000Z,19.80
2018-02-18T18:49:58.089Z,19.83
2018-02-18T18:52:25.725Z,21.23
2018-02-18T18:54:53.362Z,20.73
2018-02-18T18:57:26.501Z,19.53
2018-02-18T18:59:54.912Z,20.47
2018-02-18T19:02:22.582Z,20.33
2018-02-18T19:04:50.219Z,20.63
2018-02-18T19:07:18.184Z,21.73
2018-02-18T19:09:45.825Z,21.00
2018-02-18T19:12:13.485Z,19.37
2018-02-18T19:14:41.141Z,21.53
2018-02-18T19:17:08.786Z,20.77
2018-02-18T19:19:36.433Z,21.07
2018-02-18T19:22:04.824Z,18.87
2018-02-18T19:24:32.501Z,19.00
2018-02-18T19:27:00.147Z,18.73
2018-02-18T19:29:28.547Z,18.20
2018-02-18T19:31:56.218Z,19.63
2018-02-18T19:34:23.862Z,17.67
2018-02-18T19:36:51.510Z,18.73
2018-02-18T19:39:19.133Z,18.23
2018-02-18T19:41:46.781Z,17.90
2018-02-18T19:44:14.422Z,17.93
2018-02-18T19:46:42.858Z,16.80
2018-02-18T19:49:10.528Z,17.20
2018-02-18T19:51:38.170Z,16.33
2018-02-18T19:54:05.830Z,18.30
2018-02-18T19:56:33.484Z,18.70
2018-02-18T19:59:01.120Z,18.57
2018-02-18T20:01:28.808Z,20.05
2018-02-18T20:03:56.431Z,18.53
2018-02-18T20:06:24.071Z,18.83
2018-02-18T20:08:51.730Z,20.17
2018-02-18T20:11:20.125Z,18.70
2018-02-18T20:13:47.772Z,19.10
2018-02-18T20:16:15.469Z,18.17
2018-02-18T20:18:43.094Z,18.37
2018-02-18T20:21:11.509Z,19.20
2018-02-18T20:23:39.123Z,17.53
2018-02-18T20:26:06.758Z,18.93
2018-02-18T20:28:36.404Z,18.27
2018-02-18T20:31:04.989Z,18.00
2018-02-18T20:33:32.617Z,17.67
2018-02-18T20:36:00.252Z,19.77
2018-02-18T20:38:27.890Z,19.07
2018-02-18T20:40:56.285Z,19.40
2018-02-18T20:43:24.686Z,20.37
2018-02-18T20:45:52.318Z,19.47
2018-02-18T20:48:19.958Z,18.63
2018-02-18T20:50:47.597Z,19.17
2018-02-18T20:53:15.221Z,18.23
2018-02-18T20:55:42.877Z,19.07
2018-02-18T20:58:10.525Z,20.07
2018-02-18T21:00:38.169Z,18.17
2018-02-18T21:03:05.797Z,20.47
2018-02-18T21:05:34.191Z,18.70
2018-02-18T21:08:01.841Z,19.60
2018-02-18T21:10:30.269Z,19.67
2018-02-18T21:12:57.894Z,19.40
2018-02-18T21:15:27.281Z,19.50
2018-02-18T21:17:54.905Z,19.43
2018-02-18T21:20:22.603Z,18.77
2018-02-18T21:22:50.190Z,20.93
2018-02-18T21:25:17.829Z,18.30
2018-02-18T21:27:45.463Z,18.63
2018-02-18T21:30:13.081Z,18.03
2018-02-18T21:32:41.486Z,17.80
2018-02-18T21:35:09.881Z,18.73
2018-02-18T21:37:37.512Z,18.20
2018-02-18T21:40:05.172Z,18.10
2018-02-18T21:42:32.833Z,17.17
2018-02-18T21:45:00.617Z,18.83
2018-02-18T21:47:28.262Z,17.40
2018-02-18T21:49:55.908Z,18.10
2018-02-18T21:52:23.533Z,16.73
2018-02-18T21:54:51.974Z,18.20
2018-02-18T21:57:19.589Z,17.90
2018-02-18T21:59:48.000Z,18.70
2018-02-18T22:02:15.644Z,17.83
2018-02-18T22:04:44.028Z,18.47
2018-02-18T22:07:11.673Z,16.43
2018-02-18T22:09:39.288Z,17.23
2018-02-18T22:12:06.914Z,17.47
2018-02-18T22:14:35.310Z,18.33
2018-02-18T22:17:03.705Z,17.63
2018-02-18T22:19:31.360Z,16.83
2018-02-18T22:21:58.996Z,16.53
2018-02-18T22:24:26.622Z,18.37
2018-02-18T22:26:54.249Z,18.00
2018-02-18T22:29:22.674Z,17.63
2018-02-18T22:31:50.298Z,17.57
2018-02-18T22:34:17.933Z,17.73
2018-02-18T22:36:45.553Z,18.00
2018-02-18T22:39:13.232Z,17.90
2018-02-18T22:41:40.857Z,20.07
2018-02-18T22:44:09.252Z,19.67
2018-02-18T22:46:41.402Z,18.53
2018-02-18T22:49:09.804Z,19.17
2018-02-18T22:51:37.425Z,19.13
2018-02-18T22:54:05.069Z,20.00
2018-02-18T22:56:32.781Z,18.70
2018-02-18T22:59:01.197Z,20.23
2018-02-18T23:01:28.845Z,19.97
2018-02-18T23:03:57.251Z,19.30
2018-02-18T23:06:24.869Z,19.53
2018-02-18T23:08:52.497Z,18.83
2018-02-18T23:11:20.138Z,20.47
2018-02-18T23:13:48.525Z,20.20
2018-02-18T23:16:16.157Z,19.43
2018-02-18T23:18:43.814Z,20.23
2018-02-18T23:21:11.441Z,20.00
2018-02-18T23:23:39.082Z,20.20
2018-02-18T23:26:07.484Z,20.33
2018-02-18T23:28:35.121Z,20.20
2018-02-18T23:31:03.508Z,20.43
2018-02-18T23:33:31.904Z,20.40
2018-02-18T23:35:59.533Z,19.77
2018-02-18T23:38:27.164Z,19.53
2018-02-18T23:40:54.792Z,16.13
2018-02-18T23:43:22.428Z,18.53
2018-02-18T23:45:50.064Z,20.13
2018-02-18T23:48:17.706Z,19.13
2018-02-18T23:50:45.336Z,18.67
2018-02-18T23:53:13.771Z,19.73
2018-02-18T23:55:41.412Z,19.93
2018-02-18T23:58:09.036Z,19.57
